createdAt,value
2019-02-22T00:02:27.864Z,29.86
2019-02-22T00:08:22.874Z,30.09
2019-02-22T00:14:17.930Z,30.06
2019-02-22T00:20:12.859Z,32.37
2019-02-22T00:26:07.875Z,30.39
2019-02-22T00:32:02.857Z,34.05
2019-02-22T00:37:57.933Z,31.78
2019-02-22T00:43:52.879Z,33.2
2019-02-22T00:49:47.884Z,29.59
2019-02-22T00:55:42.912Z,29.83
2019-02-22T01:01:37.876Z,31.42
2019-02-22T01:07:32.881Z,31.82
2019-02-22T01:13:27.895Z,30.33
2019-02-22T01:19:22.895Z,28.67
2019-02-22T01:25:17.952Z,28.72
2019-02-22T01:31:12.896Z,31.81
2019-02-22T01:37:07.917Z,31.42
2019-02-22T01:43:02.922Z,32.54
2019-02-22T01:48:57.917Z,31.52
2019-02-22T01:54:52.894Z,31.04
2019-02-22T02:00:47.977Z,34.7
2019-02-22T02:06:42.980Z,34.5
2019-02-22T02:12:37.913Z,36.14
2019-02-22T02:18:32.940Z,37.85
2019-02-22T02:24:27.919Z,36.38
2019-02-22T02:30:22.944Z,40.07
2019-02-22T02:36:17.941Z,38.55
2019-02-22T02:42:12.935Z,39.9
2019-02-22T02:48:07.944Z,39.1
2019-02-22T02:54:02.944Z,43.09
2019-02-22T02:59:57.927Z,38.97
2019-02-22T03:05:52.964Z,39.71
2019-02-22T03:11:47.946Z,38.94
2019-02-22T03:17:42.968Z,40.25
2019-02-22T03:23:37.948Z,40.04
2019-02-22T03:29:32.952Z,39.73
2019-02-22T03:35:27.998Z,38.53
2019-02-22T03:41:32.139Z,38.47
2019-02-22T03:47:17.991Z,37.36
2019-02-22T03:53:13.001Z,37.89
2019-02-22T03:59:07.994Z,39.6
2019-02-22T04:05:02.996Z,38.11
2019-02-22T04:10:57.989Z,35.51
2019-02-22T04:16:52.989Z,34.79
2019-02-22T04:22:47.984Z,33.49
2019-02-22T04:28:43.030Z,33.58
2019-02-22T04:34:38.000Z,31.86
2019-02-22T04:40:33.010Z,32.52
2019-02-22T04:46:27.994Z,30.02
2019-02-22T04:52:23.025Z,32.18
2019-02-22T04:58:18.046Z,34.04
2019-02-22T05:04:13.052Z,35.19
2019-02-22T05:10:08.040Z,35.52
2019-02-22T05:16:03.054Z,32.34
2019-02-22T05:21:58.026Z,26.75
2019-02-22T05:27:53.022Z,26.83
2019-02-22T05:33:48.077Z,24.95
2019-02-22T05:39:43.053Z,24.17
2019-02-22T05:45:38.049Z,25.66
2019-02-22T05:51:33.095Z,26.03
2019-02-22T05:57:28.046Z,26.03
2019-02-22T06:03:23.053Z,25.02
2019-02-22T06:09:18.062Z,24.31
2019-02-22T06:15:13.065Z,23.39
2019-02-22T06:21:08.071Z,21.46
2019-02-22T06:27:03.068Z,21.28
2019-02-22T06:32:58.135Z,21.03
2019-02-22T06:38:53.078Z,19.6
2019-02-22T06:44:48.069Z,21.97
2019-02-22T06:50:43.199Z,21
2019-02-22T06:56:38.073Z,20.75
2019-02-22T07:02:33.093Z,21.4
2019-02-22T07:08:28.069Z,21.44
2019-02-22T07:14:23.108Z,21.63
2019-02-22T07:20:18.131Z,20.85
2019-02-22T07:26:13.115Z,21.38
2019-02-22T07:32:08.101Z,29.3
2019-02-22T07:38:03.122Z,27.36
2019-02-22T07:43:58.113Z,29.26
2019-02-22T07:49:53.119Z,31.3
2019-02-22T07:55:48.155Z,33.72
2019-02-22T08:01:47.062Z,35.07
2019-02-22T08:07:38.120Z,36.45
2019-02-22T08:13:33.128Z,35.37
2019-02-22T08:19:28.131Z,35.16
2019-02-22T08:25:23.177Z,37
2019-02-22T08:31:18.182Z,33.65
2019-02-22T08:37:13.140Z,34.99
2019-02-22T08:43:08.161Z,34.32
2019-02-22T08:49:03.167Z,34.47
2019-02-22T08:54:58.158Z,32.72
2019-02-22T09:00:53.150Z,33.78
2019-02-22T09:06:48.178Z,31.71
2019-02-22T09:12:43.181Z,24.68
2019-02-22T09:18:38.197Z,21.85
2019-02-22T09:24:33.164Z,22.07
2019-02-22T09:30:28.171Z,20.58
2019-02-22T09:36:23.182Z,18.34
2019-02-22T09:42:18.165Z,16.38
2019-02-22T09:48:13.295Z,16.15
2019-02-22T09:54:08.203Z,17.17
2019-02-22T10:00:03.211Z,19.13
2019-02-22T10:05:58.207Z,18.2
2019-02-22T10:11:53.192Z,18.92
2019-02-22T10:17:48.202Z,18.93
2019-02-22T10:23:43.207Z,19.35
2019-02-22T10:29:38.237Z,18.53
2019-02-22T10:35:33.225Z,19.8
2019-02-22T10:41:28.275Z,20.18
2019-02-22T10:47:23.210Z,19.9
2019-02-22T10:53:18.242Z,20.15
2019-02-22T10:59:13.231Z,20.58
2019-02-22T11:05:08.234Z,20.83
2019-02-22T11:11:03.221Z,21.22
2019-02-22T11:16:58.271Z,20.01
2019-02-22T11:22:53.277Z,20.1
2019-02-22T11:28:48.231Z,19.27
2019-02-22T11:34:43.254Z,19.35
2019-02-22T11:40:38.255Z,20.38
2019-02-22T11:46:33.253Z,19.45
2019-02-22T11:52:28.264Z,20.9
2019-02-22T11:58:23.308Z,19.52
2019-02-22T12:04:18.289Z,19.51
2019-02-22T12:10:13.271Z,19.47
2019-02-22T12:16:08.319Z,21.26
2019-02-22T12:22:03.299Z,20.93
2019-02-22T12:27:58.269Z,19.39
2019-02-22T12:33:53.318Z,20.58
2019-02-22T12:39:48.325Z,20.99
2019-02-22T12:45:43.339Z,18.88
2019-02-22T12:51:38.300Z,19.84
2019-02-22T12:57:33.304Z,20.88
2019-02-22T13:03:28.299Z,19.85
2019-02-22T13:09:23.316Z,19.29
2019-02-22T13:15:18.311Z,20.26
2019-02-22T13:21:13.359Z,20.59
2019-02-22T13:27:08.324Z,19.44
2019-02-22T13:33:03.334Z,19.71
2019-02-22T13:38:58.398Z,19.34
2019-02-22T13:44:53.327Z,19.9
2019-02-22T13:50:48.364Z,19.33
2019-02-22T13:56:43.407Z,20.28
2019-02-22T14:02:38.342Z,19.87
2019-02-22T14:08:33.354Z,18.37
2019-02-22T14:14:28.452Z,18.85
2019-02-22T14:20:23.379Z,19.73
2019-02-22T14:26:18.381Z,18.83
2019-02-22T14:32:13.379Z,18.93
2019-02-22T14:38:08.458Z,18.18
2019-02-22T14:44:03.410Z,19.02
2019-02-22T14:49:58.369Z,18.12
2019-02-22T14:55:53.419Z,17.42
2019-02-22T15:01:48.396Z,17.46
2019-02-22T15:07:43.423Z,17.18
2019-02-22T15:13:38.411Z,17.38
2019-02-22T15:19:33.395Z,15.75
2019-02-22T15:25:28.462Z,16.79
2019-02-22T15:31:23.390Z,15.36
2019-02-22T15:37:18.413Z,14.76
2019-02-22T15:43:13.412Z,14.77
2019-02-22T15:49:08.464Z,14.27
2019-02-22T15:55:03.447Z,15
2019-02-22T16:00:58.477Z,15.22
2019-02-22T16:06:53.422Z,15.97
2019-02-22T16:12:48.437Z,14.6
2019-02-22T16:18:43.503Z,17.73
2019-02-22T16:24:38.457Z,24.13
2019-02-22T16:30:33.428Z,23.89
2019-02-22T16:36:28.459Z,20.13
2019-02-22T16:42:23.446Z,14.14
2019-02-22T16:48:18.441Z,14.65
2019-02-22T16:54:13.515Z,14.98
2019-02-22T17:00:08.467Z,14.76
2019-02-22T17:06:03.450Z,14.64
2019-02-22T17:12:06.010Z,15.23
2019-02-22T17:17:53.473Z,14.88
2019-02-22T17:23:48.495Z,15.23
2019-02-22T17:29:43.501Z,15.22
2019-02-22T17:35:38.511Z,15.6
2019-02-22T17:41:33.474Z,14.28
2019-02-22T17:47:28.489Z,15.62
2019-02-22T17:53:23.487Z,14.82
2019-02-22T17:59:18.500Z,17.3
2019-02-22T18:05:13.482Z,17.44
2019-02-22T18:11:08.557Z,15.61
2019-02-22T18:17:08.252Z,17.51
2019-02-22T18:22:58.524Z,17.39
2019-02-22T18:28:53.506Z,18.08
2019-02-22T18:34:48.549Z,16.62
2019-02-22T18:40:43.552Z,16.85
2019-02-22T18:46:38.547Z,17.24
2019-02-22T18:52:33.522Z,17
2019-02-22T18:58:28.537Z,16.38
2019-02-22T19:04:23.559Z,18.83
2019-02-22T19:10:18.532Z,15.63
2019-02-22T19:16:13.536Z,15.55
2019-02-22T19:22:08.560Z,15.65
2019-02-22T19:28:03.593Z,15.64
2019-02-22T19:33:58.547Z,15.35
2019-02-22T19:39:53.578Z,14.73
2019-02-22T19:45:48.561Z,16.39
2019-02-22T19:51:43.563Z,15.73
2019-02-22T19:57:38.588Z,18.19
2019-02-22T20:03:33.586Z,18.36
2019-02-22T20:09:28.574Z,17.52
2019-02-22T20:15:23.599Z,18.34
2019-02-22T20:21:18.655Z,20.03
2019-02-22T20:27:13.595Z,17.94
2019-02-22T20:33:08.585Z,19.04
2019-02-22T20:39:03.618Z,17.13
2019-02-22T20:44:58.607Z,20.45
2019-02-22T20:50:53.584Z,20.57
2019-02-22T20:56:48.646Z,21.26
2019-02-22T21:02:43.605Z,22.66
2019-02-22T21:08:38.589Z,19.58
2019-02-22T21:14:33.654Z,18.67
2019-02-22T21:20:28.617Z,17.38
2019-02-22T21:26:23.619Z,21.01
2019-02-22T21:32:18.721Z,20.37
2019-02-22T21:38:13.660Z,20.34
2019-02-22T21:44:08.684Z,23.05
2019-02-22T21:50:03.645Z,22.23
2019-02-22T21:55:58.636Z,18.8
2019-02-22T22:01:53.641Z,19.64
2019-02-22T22:07:48.644Z,20.63
2019-02-22T22:13:43.641Z,21.13
2019-02-22T22:19:38.666Z,39.72
2019-02-22T22:25:33.653Z,24.35
2019-02-22T22:31:28.649Z,24.26
2019-02-22T22:37:23.660Z,24.62
2019-02-22T22:43:18.646Z,26.4
2019-02-22T22:49:13.685Z,26.66
2019-02-22T22:55:08.675Z,29.73
2019-02-22T23:01:03.684Z,28.18
2019-02-22T23:06:58.648Z,28.79
2019-02-22T23:12:53.698Z,28.17
2019-02-22T23:18:48.667Z,28.57
2019-02-22T23:24:43.696Z,29.94
2019-02-22T23:30:38.756Z,28.8
2019-02-22T23:36:33.682Z,29.68
2019-02-22T23:42:28.702Z,29.41
2019-02-22T23:48:23.711Z,27.59
2019-02-22T23:54:18.693Z,27.18
